Карточка аэропорта UMKK

Внимание!
Информация на этой странице в стадии наполнения.
Если вы не увидели какой-то информации, или заметили неточность - пожалуйста сообщите нам!
Спасибо!
Команда RU-STAFF
Название аэропортаХраброво
Название аэропорта (англ.)Khrabrovo
Превышение43 ft. (13.1 m.)
Координаты54°53.4', 20°35.55'
Высота перехода4000ft
Эшелон переходаFL50 (QNH>=1013hPa); FL60 (QNH<1013hPa); FL50 (QNH<977hPa);
Коды ответчика6620-6637
Зона ОрВДКалининград РПИ (UMKK)
Данные METARUMKK 072030Z 22006MPS 5000 -SHSNRA SCT006 BKN016CB 01/01 Q0998 RESHRA RESHSN R24/690295 NOSIG RMK QBB180 OBST OBSC QFE748/0997
Проноз погоды (TAF)UMKK 071958Z 0721/0821 23007G14MPS 2000 SHSNRA SCT006 BKN016CB TEMPO 0721/0810 29010G18MPS 0500 +SHSN BLSN BKN003 BKN014CB BECMG 0810/0812 6000 NSW BKN010CB BECMG 0812/0814 18006G11MPS TEMPO 0815/0821 0500 +SHSNRA BKN002 BKN015CB
NOTAMshow/hide NOTAM
AWOS   TABLE

Информация о ВПП

ВПП Длина ВПП (м.) Покрытие Курс ВПП Частота ILS
243350Асфальтобетон240109.5
063350Асфальтобетон60110.3

Диспетчерские позиции

Позывной Наименование органа УВД Частота
UMKK_TWRКалининград-Вышка127.2
UMKK_APPКалининград-Подход126.0



Спутниковое изображение